Airfield :
LOGIN :

Register | Disclaimer

   EN    FR    IT 

 










Legend :    VFR   Marginal VFR   IFR   Intensive IFR   Very Intensive IFR
Visi :
Ceiling :
>= 8 km
>= 3000ft
5 to 8 km
1000 to 3000 ft
1500m to 5 km
500 to 1000 ft
800 to 1500m
200 to 500 ft
< 800m
< 200 ft
Symbols :   Thunderstorms  Fog  Heavy snow  Heavy precipitations  Wind > 20 kt
SIGMETs :     Misc.  Thunderstorms  Icing  Turbulence  Mountain Waves  Volcanic Ashes







- Airport Elevation : 53 ft
- IATA code : HAM


EDDH - Hamburg

CURRENT METAR :
  • 191020Z 24015KT 9999 SCT017 BKN048 08/04 Q1013 BECMG 24015G25KT

EXPIRED METARs :
  • 190950Z 24014KT 220V290 9999 FEW014 BKN017 08/04 Q1013 BECMG 24015G25KT
  • 190920Z 24012KT 210V270 9999 FEW012 BKN015 07/04 Q1013 BECMG 24015G25KT
  • 190850Z 24013KT 9999 FEW010 BKN013 07/04 Q1013 BECMG 24015G25KT SCT013
  • 190820Z 24011KT 210V270 8000 FEW010 BKN013 07/05 Q1013 BECMG 24015G25KT SCT013
  • 190750Z 23010KT 7000 SCT010 BKN017 07/05 Q1013 TEMPO BKN010

TAF TAF EDDH
Valid from the 19 at 06:00 until the 20 at 12:00 UTC


190500Z 1906/2012 24007KT 9999 BKN025
BECMG 1906/1909 26012KT
TEMPO 1906/1908 BKN012
TEMPO 1910/1917 26015G25KT
TEMPO 1913/1917 SHRA BKN014CB
TEMPO 1921/2012 BKN012
PROB30
TEMPO 2003/2012 BKN007
No reported NOTAMs for that airfield.



MET'MAP, your aeronautical weather chart ! - Copyright ORBIFLY December 2007 - Disclaimer

ORBIFLY MET'MAP TEAM :

Programming & Development : Alexandra Zaïnal
Concept & Development : Baudouin d'Aumeries
Co-Development & Prog : Marc-Olivier Méhu
Technical & hardware support : Manuel Goepfert

Contact : metmap@orbifly.com




SOURCES & CREDITS :

   NOAA